sensor_id;sensor_type;location;lat;lon;timestamp;temperature;humidity
46752;DHT22;32497;48.936;9.270;2024-01-25T00:01:46;9.10;79.30
46752;DHT22;32497;48.936;9.270;2024-01-25T00:06:49;9.10;78.70
46752;DHT22;32497;48.936;9.270;2024-01-25T00:11:50;9.20;78.60
46752;DHT22;32497;48.936;9.270;2024-01-25T00:16:51;9.20;78.80
46752;DHT22;32497;48.936;9.270;2024-01-25T00:21:53;9.20;78.80
46752;DHT22;32497;48.936;9.270;2024-01-25T00:26:55;9.20;78.80
46752;DHT22;32497;48.936;9.270;2024-01-25T00:31:56;9.10;79.20
46752;DHT22;32497;48.936;9.270;2024-01-25T00:36:59;9.10;79.40
46752;DHT22;32497;48.936;9.270;2024-01-25T00:42:04;9.10;79.50
46752;DHT22;32497;48.936;9.270;2024-01-25T00:47:06;9.20;79.60
46752;DHT22;32497;48.936;9.270;2024-01-25T00:52:10;9.20;79.30
46752;DHT22;32497;48.936;9.270;2024-01-25T00:57:11;9.20;79.30
46752;DHT22;32497;48.936;9.270;2024-01-25T01:02:13;9.20;79.60
46752;DHT22;32497;48.936;9.270;2024-01-25T01:07:16;9.10;79.70
46752;DHT22;32497;48.936;9.270;2024-01-25T01:12:18;9.20;79.60
46752;DHT22;32497;48.936;9.270;2024-01-25T01:17:19;9.20;79.40
46752;DHT22;32497;48.936;9.270;2024-01-25T01:22:21;9.20;79.50
46752;DHT22;32497;48.936;9.270;2024-01-25T01:27:22;9.20;80.00
46752;DHT22;32497;48.936;9.270;2024-01-25T01:32:23;9.30;79.60
46752;DHT22;32497;48.936;9.270;2024-01-25T01:37:26;9.30;79.50
46752;DHT22;32497;48.936;9.270;2024-01-25T01:42:27;9.40;79.70
46752;DHT22;32497;48.936;9.270;2024-01-25T01:47:28;9.30;79.70
46752;DHT22;32497;48.936;9.270;2024-01-25T01:52:31;9.40;79.60
46752;DHT22;32497;48.936;9.270;2024-01-25T01:57:32;9.40;79.30
46752;DHT22;32497;48.936;9.270;2024-01-25T02:02:33;9.40;79.40
46752;DHT22;32497;48.936;9.270;2024-01-25T02:07:37;9.40;79.40
46752;DHT22;32497;48.936;9.270;2024-01-25T02:12:38;9.40;79.20
46752;DHT22;32497;48.936;9.270;2024-01-25T02:17:39;9.30;79.50
46752;DHT22;32497;48.936;9.270;2024-01-25T02:22:42;9.30;79.10
46752;DHT22;32497;48.936;9.270;2024-01-25T02:27:43;9.20;78.40
46752;DHT22;32497;48.936;9.270;2024-01-25T02:32:44;9.20;78.70
46752;DHT22;32497;48.936;9.270;2024-01-25T02:37:47;9.30;78.40
46752;DHT22;32497;48.936;9.270;2024-01-25T02:42:48;9.20;78.60
46752;DHT22;32497;48.936;9.270;2024-01-25T02:47:49;9.20;78.00
46752;DHT22;32497;48.936;9.270;2024-01-25T02:52:51;9.30;77.60
46752;DHT22;32497;48.936;9.270;2024-01-25T02:57:53;9.30;77.50
46752;DHT22;32497;48.936;9.270;2024-01-25T03:02:54;9.30;77.40
46752;DHT22;32497;48.936;9.270;2024-01-25T03:07:56;9.30;77.20
46752;DHT22;32497;48.936;9.270;2024-01-25T03:12:57;9.20;77.60
46752;DHT22;32497;48.936;9.270;2024-01-25T03:17:58;9.20;77.50
46752;DHT22;32497;48.936;9.270;2024-01-25T03:23:01;9.20;76.80
46752;DHT22;32497;48.936;9.270;2024-01-25T03:28:02;9.20;76.90
46752;DHT22;32497;48.936;9.270;2024-01-25T03:33:03;9.10;77.40
46752;DHT22;32497;48.936;9.270;2024-01-25T03:38:06;9.10;77.20
46752;DHT22;32497;48.936;9.270;2024-01-25T03:43:07;9.10;77.20
46752;DHT22;32497;48.936;9.270;2024-01-25T03:48:08;9.10;77.90
46752;DHT22;32497;48.936;9.270;2024-01-25T03:53:10;9.10;78.00
46752;DHT22;32497;48.936;9.270;2024-01-25T03:58:11;9.10;77.70
46752;DHT22;32497;48.936;9.270;2024-01-25T04:03:13;9.00;77.80
46752;DHT22;32497;48.936;9.270;2024-01-25T04:08:15;9.00;78.00
46752;DHT22;32497;48.936;9.270;2024-01-25T04:13:16;8.90;78.20
46752;DHT22;32497;48.936;9.270;2024-01-25T04:18:17;8.90;78.50
46752;DHT22;32497;48.936;9.270;2024-01-25T04:23:20;8.90;78.70
46752;DHT22;32497;48.936;9.270;2024-01-25T04:28:21;8.80;79.10
46752;DHT22;32497;48.936;9.270;2024-01-25T04:33:22;8.80;78.90
46752;DHT22;32497;48.936;9.270;2024-01-25T04:38:24;8.80;78.40
46752;DHT22;32497;48.936;9.270;2024-01-25T04:43:25;8.70;78.30
46752;DHT22;32497;48.936;9.270;2024-01-25T04:48:26;8.70;78.30
46752;DHT22;32497;48.936;9.270;2024-01-25T04:53:29;8.70;78.60
46752;DHT22;32497;48.936;9.270;2024-01-25T04:58:30;8.60;78.50
46752;DHT22;32497;48.936;9.270;2024-01-25T05:03:31;8.50;78.70
46752;DHT22;32497;48.936;9.270;2024-01-25T05:08:33;8.20;79.70
46752;DHT22;32497;48.936;9.270;2024-01-25T05:13:35;8.00;80.10
46752;DHT22;32497;48.936;9.270;2024-01-25T05:18:36;8.00;80.00
46752;DHT22;32497;48.936;9.270;2024-01-25T05:23:38;7.90;80.00
46752;DHT22;32497;48.936;9.270;2024-01-25T05:28:39;7.80;80.10
46752;DHT22;32497;48.936;9.270;2024-01-25T05:33:40;7.70;80.30
46752;DHT22;32497;48.936;9.270;2024-01-25T05:38:43;7.50;80.60
46752;DHT22;32497;48.936;9.270;2024-01-25T05:43:44;7.40;81.10
46752;DHT22;32497;48.936;9.270;2024-01-25T05:48:45;7.30;81.30
46752;DHT22;32497;48.936;9.270;2024-01-25T05:53:48;7.10;81.70
46752;DHT22;32497;48.936;9.270;2024-01-25T05:58:49;7.10;82.10
46752;DHT22;32497;48.936;9.270;2024-01-25T06:03:50;6.90;82.40
46752;DHT22;32497;48.936;9.270;2024-01-25T06:08:52;6.90;82.70
46752;DHT22;32497;48.936;9.270;2024-01-25T06:13:53;7.00;82.30
46752;DHT22;32497;48.936;9.270;2024-01-25T06:18:54;7.20;81.40
46752;DHT22;32497;48.936;9.270;2024-01-25T06:23:57;7.40;80.60
46752;DHT22;32497;48.936;9.270;2024-01-25T06:28:58;7.30;80.70
46752;DHT22;32497;48.936;9.270;2024-01-25T06:33:59;7.50;80.10
46752;DHT22;32497;48.936;9.270;2024-01-25T06:39:02;7.40;80.30
46752;DHT22;32497;48.936;9.270;2024-01-25T06:44:03;7.20;81.00
46752;DHT22;32497;48.936;9.270;2024-01-25T06:49:04;7.10;81.30
46752;DHT22;32497;48.936;9.270;2024-01-25T06:54:06;7.00;82.10
46752;DHT22;32497;48.936;9.270;2024-01-25T06:59:07;7.00;82.10
46752;DHT22;32497;48.936;9.270;2024-01-25T07:04:09;7.00;82.40
46752;DHT22;32497;48.936;9.270;2024-01-25T07:09:11;7.00;82.20
46752;DHT22;32497;48.936;9.270;2024-01-25T07:14:12;7.00;82.50
46752;DHT22;32497;48.936;9.270;2024-01-25T07:19:13;7.10;82.50
46752;DHT22;32497;48.936;9.270;2024-01-25T07:24:16;7.10;82.50
46752;DHT22;32497;48.936;9.270;2024-01-25T07:29:17;7.10;82.80
46752;DHT22;32497;48.936;9.270;2024-01-25T07:34:18;7.10;83.20
46752;DHT22;32497;48.936;9.270;2024-01-25T07:39:20;7.10;83.40
46752;DHT22;32497;48.936;9.270;2024-01-25T07:44:21;7.10;83.30
46752;DHT22;32497;48.936;9.270;2024-01-25T07:49:22;7.20;83.50
46752;DHT22;32497;48.936;9.270;2024-01-25T07:54:25;7.20;83.60
46752;DHT22;32497;48.936;9.270;2024-01-25T07:59:26;7.30;83.50
46752;DHT22;32497;48.936;9.270;2024-01-25T08:04:27;7.40;83.50
46752;DHT22;32497;48.936;9.270;2024-01-25T08:09:29;7.50;83.60
46752;DHT22;32497;48.936;9.270;2024-01-25T08:14:30;7.60;83.40
46752;DHT22;32497;48.936;9.270;2024-01-25T08:19:31;7.70;83.00
46752;DHT22;32497;48.936;9.270;2024-01-25T08:24:34;7.40;83.30
46752;DHT22;32497;48.936;9.270;2024-01-25T08:29:35;7.10;84.20
46752;DHT22;32497;48.936;9.270;2024-01-25T08:34:36;7.10;85.00
46752;DHT22;32497;48.936;9.270;2024-01-25T08:39:38;7.00;85.50
46752;DHT22;32497;48.936;9.270;2024-01-25T08:44:40;7.00;85.50
46752;DHT22;32497;48.936;9.270;2024-01-25T08:49:41;7.10;85.40
46752;DHT22;32497;48.936;9.270;2024-01-25T08:54:43;7.10;85.40
46752;DHT22;32497;48.936;9.270;2024-01-25T08:59:44;7.30;85.40
46752;DHT22;32497;48.936;9.270;2024-01-25T09:04:45;7.40;85.10
46752;DHT22;32497;48.936;9.270;2024-01-25T09:09:48;7.50;84.70
46752;DHT22;32497;48.936;9.270;2024-01-25T09:14:49;7.60;84.50
46752;DHT22;32497;48.936;9.270;2024-01-25T09:19:50;7.80;84.10
46752;DHT22;32497;48.936;9.270;2024-01-25T09:24:53;7.90;83.90
46752;DHT22;32497;48.936;9.270;2024-01-25T09:29:54;8.10;83.50
46752;DHT22;32497;48.936;9.270;2024-01-25T09:34:55;8.20;83.40
46752;DHT22;32497;48.936;9.270;2024-01-25T09:39:57;8.30;82.90
46752;DHT22;32497;48.936;9.270;2024-01-25T09:44:58;8.40;82.70
46752;DHT22;32497;48.936;9.270;2024-01-25T09:50:00;8.60;81.90
46752;DHT22;32497;48.936;9.270;2024-01-25T09:55:02;8.80;81.10
46752;DHT22;32497;48.936;9.270;2024-01-25T10:00:06;8.90;80.50
46752;DHT22;32497;48.936;9.270;2024-01-25T10:05:08;9.10;80.10
46752;DHT22;32497;48.936;9.270;2024-01-25T10:10:11;9.40;79.10
46752;DHT22;32497;48.936;9.270;2024-01-25T10:15:13;9.60;77.30
46752;DHT22;32497;48.936;9.270;2024-01-25T10:20:14;9.50;77.30
46752;DHT22;32497;48.936;9.270;2024-01-25T10:25:16;9.70;76.80
46752;DHT22;32497;48.936;9.270;2024-01-25T10:30:18;9.80;75.20
46752;DHT22;32497;48.936;9.270;2024-01-25T10:35:20;10.10;74.70
46752;DHT22;32497;48.936;9.270;2024-01-25T10:40:23;10.20;73.10
46752;DHT22;32497;48.936;9.270;2024-01-25T10:45:25;10.00;74.70
46752;DHT22;32497;48.936;9.270;2024-01-25T10:50:26;10.20;74.80
46752;DHT22;32497;48.936;9.270;2024-01-25T10:55:29;10.80;73.30
46752;DHT22;32497;48.936;9.270;2024-01-25T11:00:31;11.10;71.30
46752;DHT22;32497;48.936;9.270;2024-01-25T11:05:32;10.90;71.40
46752;DHT22;32497;48.936;9.270;2024-01-25T11:10:36;11.00;71.00
46752;DHT22;32497;48.936;9.270;2024-01-25T11:15:37;11.20;69.70
46752;DHT22;32497;48.936;9.270;2024-01-25T11:20:38;11.30;69.80
46752;DHT22;32497;48.936;9.270;2024-01-25T11:25:44;11.40;69.50
46752;DHT22;32497;48.936;9.270;2024-01-25T11:30:46;11.50;69.60
46752;DHT22;32497;48.936;9.270;2024-01-25T11:35:54;11.10;70.00
46752;DHT22;32497;48.936;9.270;2024-01-25T11:40:58;10.70;70.40
46752;DHT22;32497;48.936;9.270;2024-01-25T11:45:59;10.50;71.20
46752;DHT22;32497;48.936;9.270;2024-01-25T11:51:00;10.40;71.20
46752;DHT22;32497;48.936;9.270;2024-01-25T11:56:04;10.60;70.10
46752;DHT22;32497;48.936;9.270;2024-01-25T12:01:08;10.90;69.90
46752;DHT22;32497;48.936;9.270;2024-01-25T12:06:09;11.00;68.50
46752;DHT22;32497;48.936;9.270;2024-01-25T12:11:12;11.00;68.70
46752;DHT22;32497;48.936;9.270;2024-01-25T12:16:13;11.10;68.40
46752;DHT22;32497;48.936;9.270;2024-01-25T12:21:14;11.10;68.30
46752;DHT22;32497;48.936;9.270;2024-01-25T12:26:17;11.30;67.20
46752;DHT22;32497;48.936;9.270;2024-01-25T12:31:18;11.00;68.50
46752;DHT22;32497;48.936;9.270;2024-01-25T12:36:19;10.70;69.10
46752;DHT22;32497;48.936;9.270;2024-01-25T12:41:22;10.50;69.40
46752;DHT22;32497;48.936;9.270;2024-01-25T12:46:23;10.90;68.70
46752;DHT22;32497;48.936;9.270;2024-01-25T12:51:24;11.40;66.60
46752;DHT22;32497;48.936;9.270;2024-01-25T12:56:26;12.20;64.00
46752;DHT22;32497;48.936;9.270;2024-01-25T13:01:28;12.90;63.00
46752;DHT22;32497;48.936;9.270;2024-01-25T13:06:29;13.20;61.10
46752;DHT22;32497;48.936;9.270;2024-01-25T13:11:31;13.60;60.00
46752;DHT22;32497;48.936;9.270;2024-01-25T13:16:32;14.20;57.30
46752;DHT22;32497;48.936;9.270;2024-01-25T13:21:33;13.70;56.80
46752;DHT22;32497;48.936;9.270;2024-01-25T13:26:36;12.00;62.10
46752;DHT22;32497;48.936;9.270;2024-01-25T13:31:38;11.70;63.60
46752;DHT22;32497;48.936;9.270;2024-01-25T13:36:39;11.40;65.20
46752;DHT22;32497;48.936;9.270;2024-01-25T13:41:41;13.60;59.70
46752;DHT22;32497;48.936;9.270;2024-01-25T13:46:42;16.00;52.20
46752;DHT22;32497;48.936;9.270;2024-01-25T13:51:43;17.00;50.70
46752;DHT22;32497;48.936;9.270;2024-01-25T13:56:46;17.10;48.20
46752;DHT22;32497;48.936;9.270;2024-01-25T14:01:47;16.90;48.40
46752;DHT22;32497;48.936;9.270;2024-01-25T14:06:48;17.40;46.20
46752;DHT22;32497;48.936;9.270;2024-01-25T14:11:51;17.00;47.00
46752;DHT22;32497;48.936;9.270;2024-01-25T14:16:52;16.80;47.40
46752;DHT22;32497;48.936;9.270;2024-01-25T14:21:53;17.80;45.30
46752;DHT22;32497;48.936;9.270;2024-01-25T14:26:56;17.70;46.00
46752;DHT22;32497;48.936;9.270;2024-01-25T14:31:58;17.40;45.40
46752;DHT22;32497;48.936;9.270;2024-01-25T14:36:59;16.00;48.30
46752;DHT22;32497;48.936;9.270;2024-01-25T14:42:02;14.90;52.60
46752;DHT22;32497;48.936;9.270;2024-01-25T14:47:03;14.80;52.30
46752;DHT22;32497;48.936;9.270;2024-01-25T14:52:04;13.80;54.80
46752;DHT22;32497;48.936;9.270;2024-01-25T14:57:07;12.70;59.30
46752;DHT22;32497;48.936;9.270;2024-01-25T15:02:08;12.10;61.50
46752;DHT22;32497;48.936;9.270;2024-01-25T15:07:09;11.50;63.50
46752;DHT22;32497;48.936;9.270;2024-01-25T15:12:11;11.10;65.10
46752;DHT22;32497;48.936;9.270;2024-01-25T15:17:12;10.70;66.00
46752;DHT22;32497;48.936;9.270;2024-01-25T15:22:14;10.40;67.50
46752;DHT22;32497;48.936;9.270;2024-01-25T15:27:16;10.20;68.30
46752;DHT22;32497;48.936;9.270;2024-01-25T15:32:17;9.90;69.80
46752;DHT22;32497;48.936;9.270;2024-01-25T15:37:18;9.70;70.20
46752;DHT22;32497;48.936;9.270;2024-01-25T15:42:21;9.70;71.00
46752;DHT22;32497;48.936;9.270;2024-01-25T15:47:22;9.70;70.80
46752;DHT22;32497;48.936;9.270;2024-01-25T15:52:23;9.90;70.90
46752;DHT22;32497;48.936;9.270;2024-01-25T15:57:25;9.90;71.50
46752;DHT22;32497;48.936;9.270;2024-01-25T16:02:27;9.90;71.50
46752;DHT22;32497;48.936;9.270;2024-01-25T16:07:28;9.90;71.10
46752;DHT22;32497;48.936;9.270;2024-01-25T16:12:30;9.80;71.40
46752;DHT22;32497;48.936;9.270;2024-01-25T16:17:32;9.80;71.70
46752;DHT22;32497;48.936;9.270;2024-01-25T16:22:33;9.80;71.60
46752;DHT22;32497;48.936;9.270;2024-01-25T16:27:36;9.80;72.00
46752;DHT22;32497;48.936;9.270;2024-01-25T16:32:37;9.80;72.50
46752;DHT22;32497;48.936;9.270;2024-01-25T16:37:38;9.70;73.30
46752;DHT22;32497;48.936;9.270;2024-01-25T16:42:40;9.70;73.60
46752;DHT22;32497;48.936;9.270;2024-01-25T16:47:41;9.70;73.00
46752;DHT22;32497;48.936;9.270;2024-01-25T16:52:42;9.70;73.10
46752;DHT22;32497;48.936;9.270;2024-01-25T16:57:45;9.70;73.20
46752;DHT22;32497;48.936;9.270;2024-01-25T17:02:46;9.70;73.90
46752;DHT22;32497;48.936;9.270;2024-01-25T17:07:47;9.70;73.50
46752;DHT22;32497;48.936;9.270;2024-01-25T17:12:49;9.70;73.60
46752;DHT22;32497;48.936;9.270;2024-01-25T17:17:51;9.60;73.70
46752;DHT22;32497;48.936;9.270;2024-01-25T17:22:52;9.60;74.00
46752;DHT22;32497;48.936;9.270;2024-01-25T17:27:55;9.50;74.30
46752;DHT22;32497;48.936;9.270;2024-01-25T17:32:56;9.60;74.00
46752;DHT22;32497;48.936;9.270;2024-01-25T17:37:57;9.50;74.70
46752;DHT22;32497;48.936;9.270;2024-01-25T17:42:59;9.60;74.50
46752;DHT22;32497;48.936;9.270;2024-01-25T17:48:01;9.60;74.90
46752;DHT22;32497;48.936;9.270;2024-01-25T17:53:02;9.60;75.10
46752;DHT22;32497;48.936;9.270;2024-01-25T17:58:05;9.60;75.40
46752;DHT22;32497;48.936;9.270;2024-01-25T18:03:06;9.60;75.40
46752;DHT22;32497;48.936;9.270;2024-01-25T18:08:07;9.50;75.90
46752;DHT22;32497;48.936;9.270;2024-01-25T18:13:09;9.50;76.40
46752;DHT22;32497;48.936;9.270;2024-01-25T18:18:10;9.50;76.70
46752;DHT22;32497;48.936;9.270;2024-01-25T18:23:11;9.40;77.00
46752;DHT22;32497;48.936;9.270;2024-01-25T18:28:14;9.30;81.60
46752;DHT22;32497;48.936;9.270;2024-01-25T18:33:15;8.80;84.30
46752;DHT22;32497;48.936;9.270;2024-01-25T18:38:16;8.40;85.70
46752;DHT22;32497;48.936;9.270;2024-01-25T18:43:18;8.10;87.70
46752;DHT22;32497;48.936;9.270;2024-01-25T18:48:19;8.10;88.60
46752;DHT22;32497;48.936;9.270;2024-01-25T18:53:21;8.10;89.30
46752;DHT22;32497;48.936;9.270;2024-01-25T18:58:24;8.00;89.60
46752;DHT22;32497;48.936;9.270;2024-01-25T19:03:25;7.90;90.20
46752;DHT22;32497;48.936;9.270;2024-01-25T19:08:27;7.90;90.20
46752;DHT22;32497;48.936;9.270;2024-01-25T19:13:29;7.90;90.40
46752;DHT22;32497;48.936;9.270;2024-01-25T19:18:31;7.90;90.70
46752;DHT22;32497;48.936;9.270;2024-01-25T19:23:32;8.00;90.80
46752;DHT22;32497;48.936;9.270;2024-01-25T19:28:35;8.10;90.80
46752;DHT22;32497;48.936;9.270;2024-01-25T19:33:36;8.00;90.80
46752;DHT22;32497;48.936;9.270;2024-01-25T19:38:37;8.10;90.90
46752;DHT22;32497;48.936;9.270;2024-01-25T19:43:39;8.10;91.00
46752;DHT22;32497;48.936;9.270;2024-01-25T19:48:41;8.00;90.90
46752;DHT22;32497;48.936;9.270;2024-01-25T19:53:42;7.90;91.10
46752;DHT22;32497;48.936;9.270;2024-01-25T19:58:45;7.90;91.10
46752;DHT22;32497;48.936;9.270;2024-01-25T20:03:47;7.90;91.30
46752;DHT22;32497;48.936;9.270;2024-01-25T20:08:49;7.90;91.30
46752;DHT22;32497;48.936;9.270;2024-01-25T20:13:51;7.90;91.30
46752;DHT22;32497;48.936;9.270;2024-01-25T20:18:52;7.90;91.10
46752;DHT22;32497;48.936;9.270;2024-01-25T20:23:54;7.70;91.30
46752;DHT22;32497;48.936;9.270;2024-01-25T20:28:56;7.70;91.40
46752;DHT22;32497;48.936;9.270;2024-01-25T20:33:57;7.70;91.50
46752;DHT22;32497;48.936;9.270;2024-01-25T20:38:58;7.70;91.60
46752;DHT22;32497;48.936;9.270;2024-01-25T20:44:01;7.70;91.70
46752;DHT22;32497;48.936;9.270;2024-01-25T20:49:02;7.70;91.60
46752;DHT22;32497;48.936;9.270;2024-01-25T20:54:03;7.70;91.50
46752;DHT22;32497;48.936;9.270;2024-01-25T20:59:05;7.70;91.60
46752;DHT22;32497;48.936;9.270;2024-01-25T21:04:07;7.70;91.70
46752;DHT22;32497;48.936;9.270;2024-01-25T21:09:09;7.70;91.70
46752;DHT22;32497;48.936;9.270;2024-01-25T21:14:12;7.70;91.70
46752;DHT22;32497;48.936;9.270;2024-01-25T21:19:13;7.90;91.70
46752;DHT22;32497;48.936;9.270;2024-01-25T21:24:14;7.90;91.50
46752;DHT22;32497;48.936;9.270;2024-01-25T21:29:17;7.90;91.50
46752;DHT22;32497;48.936;9.270;2024-01-25T21:34:18;8.00;91.20
46752;DHT22;32497;48.936;9.270;2024-01-25T21:39:19;8.00;91.20
46752;DHT22;32497;48.936;9.270;2024-01-25T21:44:21;8.00;91.30
46752;DHT22;32497;48.936;9.270;2024-01-25T21:49:22;7.90;91.30
46752;DHT22;32497;48.936;9.270;2024-01-25T21:54:23;7.90;91.30
46752;DHT22;32497;48.936;9.270;2024-01-25T21:59:26;7.80;91.30
46752;DHT22;32497;48.936;9.270;2024-01-25T22:04:27;7.80;91.40
46752;DHT22;32497;48.936;9.270;2024-01-25T22:09:28;7.70;91.40
46752;DHT22;32497;48.936;9.270;2024-01-25T22:14:30;7.70;91.40
46752;DHT22;32497;48.936;9.270;2024-01-25T22:19:31;7.70;91.50
46752;DHT22;32497;48.936;9.270;2024-01-25T22:24:32;7.60;91.50
46752;DHT22;32497;48.936;9.270;2024-01-25T22:29:35;7.50;91.40
46752;DHT22;32497;48.936;9.270;2024-01-25T22:34:37;7.30;91.70
46752;DHT22;32497;48.936;9.270;2024-01-25T22:39:38;7.40;91.80
46752;DHT22;32497;48.936;9.270;2024-01-25T22:44:41;7.40;91.90
46752;DHT22;32497;48.936;9.270;2024-01-25T22:49:42;7.40;92.00
46752;DHT22;32497;48.936;9.270;2024-01-25T22:54:43;7.40;92.10
46752;DHT22;32497;48.936;9.270;2024-01-25T22:59:45;7.50;92.10
46752;DHT22;32497;48.936;9.270;2024-01-25T23:04:46;7.50;92.20
46752;DHT22;32497;48.936;9.270;2024-01-25T23:09:48;7.50;92.10
46752;DHT22;32497;48.936;9.270;2024-01-25T23:14:50;7.50;92.00
46752;DHT22;32497;48.936;9.270;2024-01-25T23:19:51;7.50;92.10
46752;DHT22;32497;48.936;9.270;2024-01-25T23:24:52;7.60;92.00
46752;DHT22;32497;48.936;9.270;2024-01-25T23:29:55;7.60;91.90
46752;DHT22;32497;48.936;9.270;2024-01-25T23:34:56;7.60;91.90
46752;DHT22;32497;48.936;9.270;2024-01-25T23:39:57;7.60;91.80
46752;DHT22;32497;48.936;9.270;2024-01-25T23:44:59;7.60;91.90
46752;DHT22;32497;48.936;9.270;2024-01-25T23:50:01;7.70;91.90
46752;DHT22;32497;48.936;9.270;2024-01-25T23:55:02;7.70;91.90
